Flight Track Log - Related Links

Times and Time Zones

All times are in EDT time to prevent confusion due to time zone crossing. See the AWE433 flight status page for this flight to view local times or setup timezone preferences in your user account.

Time Position Orientation Groundspeed Altitude Reporting Facility
EDT Latitude Longitude Course Direction KTS MPH feet Rate Location/Type
Sun 03:57:17 AM 36.0747 -115.1819 93° East 196 226 3,400  Level Los Angeles Center
Sun 03:57:41 AM 36.0753 -115.2136 271° West 196 226 4,200 1,786 Climbing Los Angeles Center
Sun 03:58:41 AM 36.0892 -115.2889 283° West 236 272 5,900 1,794 Climbing Los Angeles Center
Sun 03:59:00 AM 36.1834 -115.0426 90° East  Level FlightAware Approximate
Sun 03:59:18 AM 36.1203 -115.3008 343° North 255 293 7,100  Level Los Angeles Center
Sun 03:59:42 AM 36.1564 -115.2803 25° Northeast 268 308 8,400 2,500 Climbing Los Angeles Center
Sun 04:00:00 AM 36.1841 -114.8779 80° East  Level FlightAware Approximate
Sun 04:00:18 AM 36.1753 -115.2453 56° Northeast 260 299 9,600  Level Los Angeles Center
Sun 04:01:00 AM 36.1977 -114.7148 93° East  Level FlightAware Approximate
Sun 04:01:18 AM 36.2017 -115.1539 70° East 280 322 11,400  Level Los Angeles Center
Sun 04:02:00 AM 36.1903 -114.5501 93° East  Level FlightAware Approximate
Sun 04:02:19 AM 36.1975 -115.0450 93° East 315 362 12,800  Level Los Angeles Center
Sun 04:03:19 AM 36.1967 -114.9261 90° East 341 392 15,200 2,750 Climbing Los Angeles Center
Sun 04:04:19 AM 36.1997 -114.8136 88° East 331 381 18,300 2,100 Climbing Los Angeles Center
Sun 04:05:19 AM 36.2147 -114.6992 81° East 347 399 19,400 1,100 Climbing Los Angeles Center
Sun 04:06:19 AM 36.2508 -114.5778 70° East 375 432 20,500 1,140 Climbing Los Angeles Center
Sun 04:07:20 AM 36.2900 -114.4458 70° East 404 465 21,700 1,240 Climbing Los Angeles Center
Sun 04:08:20 AM 36.3331 -114.3094 69° East 422 486 23,000 1,450 Climbing Los Angeles Center
Sun 04:09:20 AM 36.3825 -114.1386 70° East 437 503 24,600 1,500 Climbing Los Angeles Center
Sun 04:10:20 AM 36.4269 -113.9953 69° East 443 510 26,000 1,350 Climbing Los Angeles Center
Sun 04:11:20 AM 36.4703 -113.8494 70° East 448 516 27,300 1,150 Climbing Los Angeles Center
Sun 04:12:20 AM 36.5117 -113.7106 70° East 452 520 28,300 942 Climbing Los Angeles Center
Sun 04:13:21 AM 36.5567 -113.5608 69° East 461 531 29,200 843 Climbing Los Angeles Center
Sun 04:14:21 AM 36.6019 -113.4075 70° East 471 542 30,000 800 Climbing Los Angeles Center
Sun 04:15:21 AM 36.6475 -113.2494 70° East 484 557 30,800 900 Climbing Los Angeles Center
Sun 04:16:21 AM 36.6847 -113.1225 70° East 488 562 31,800 1,250 Climbing Los Angeles Center
Sun 04:17:21 AM 36.7389 -112.9356 70° East 481 554 33,300 1,050 Climbing Los Angeles Center
Sun 04:18:21 AM 36.7814 -112.7847 71° East 469 540 33,900 545 Climbing Los Angeles Center
Sun 04:19:22 AM 36.8261 -112.6322 70° East 470 541 34,400 446 Climbing Los Angeles Center
Sun 04:20:22 AM 36.8700 -112.4767 71° East 477 549 34,800 300 Climbing Los Angeles Center
Sun 04:21:22 AM 36.9153 -112.3194 70° East 482 555 35,000 100 Climbing Los Angeles Center
Sun 04:22:22 AM 36.9603 -112.1581 71° East 493 567 35,000  Level Los Angeles Center
Sun 04:22:56 AM 36.9881 -112.0592 71° East 498 573 35,000  Level Denver Center
Sun 04:23:57 AM 37.0347 -111.8950 70° East 502 578 35,000  Level Denver Center
Sun 04:24:57 AM 37.0803 -111.7314 71° East 501 577 35,000  Level Denver Center
Sun 04:25:57 AM 37.1258 -111.5667 71° East 502 578 35,000  Level Denver Center
Sun 04:27:10 AM 37.1681 -111.4061 72° East 492 566 35,000  Level Denver Center
Sun 04:28:10 AM 37.2206 -111.2108 71° East 493 567 35,000  Level Denver Center
Sun 04:29:10 AM 37.2642 -111.0489 71° East 492 566 35,000  Level Denver Center
Sun 04:30:11 AM 37.3072 -110.8861 72° East 492 566 35,000  Level Denver Center
Sun 04:31:11 AM 37.3511 -110.7239 71° East 493 567 35,000  Level Denver Center
Sun 04:32:11 AM 37.3939 -110.5589 72° East 498 573 35,000  Level Denver Center
Sun 04:33:12 AM 37.4372 -110.3944 72° East 497 572 35,000  Level Denver Center
Sun 04:34:12 AM 37.4808 -110.2286 72° East 500 575 35,000  Level Denver Center
Sun 04:35:12 AM 37.5242 -110.0583 72° East 498 573 35,000  Level Denver Center
Sun 04:36:12 AM 37.5722 -109.8731 72° East 497 572 35,000  Level Denver Center
Sun 04:37:13 AM 37.6125 -109.7161 72° East 492 566 35,000  Level Denver Center
Sun 04:38:13 AM 37.6522 -109.5567 72° East 496 571 35,000  Level Denver Center
Sun 04:39:13 AM 37.6997 -109.3700 72° East 500 575 35,000  Level Denver Center
Sun 04:40:13 AM 37.7400 -109.2089 72° East 502 578 35,000  Level Denver Center
Sun 04:41:14 AM 37.7803 -109.0467 73° East 504 580 35,000  Level Denver Center
Sun 04:42:14 AM 37.8206 -108.8872 72° East 500 575 35,000  Level Denver Center
Sun 04:43:14 AM 37.8706 -108.6997 71° East 503 579 35,000  Level Denver Center
Sun 04:44:14 AM 37.9117 -108.5408 72° East 499 574 35,000  Level Denver Center
Sun 04:45:15 AM 37.9536 -108.3797 72° East 501 577 35,000  Level Denver Center
Sun 04:46:15 AM 37.9944 -108.2222 72° East 496 571 35,000  Level Denver Center
Sun 04:47:15 AM 38.0428 -108.0367 72° East 495 570 35,000  Level Denver Center
Sun 04:48:15 AM 38.0853 -107.8708 72° East 494 568 35,000  Level Denver Center
Sun 04:49:15 AM 38.1250 -107.7139 72° East 490 564 35,000  Level Denver Center
Sun 04:50:16 AM 38.1658 -107.5553 72° East 493 567 35,000  Level Denver Center
Sun 04:51:16 AM 38.2125 -107.3694 72° East 493 567 35,000  Level Denver Center
Sun 04:52:16 AM 38.2528 -107.2119 72° East 492 566 35,000  Level Denver Center
Sun 04:53:16 AM 38.2925 -107.0494 73° East 491 565 35,000  Level Denver Center
Sun 04:54:16 AM 38.3336 -106.8833 72° East 491 565 35,000  Level Denver Center
Sun 04:55:17 AM 38.3731 -106.7181 73° East 489 563 35,000  Level Denver Center
Sun 04:56:17 AM 38.4131 -106.5525 73° East 491 565 35,000  Level Denver Center
Sun 04:57:17 AM 38.4531 -106.3858 73° East 494 568 35,000  Level Denver Center
Sun 04:58:17 AM 38.4939 -106.2203 72° East 492 566 35,000  Level Denver Center
Sun 04:59:17 AM 38.5358 -106.0400 73° East 490 564 35,000  Level Denver Center
Sun 05:00:18 AM 38.5733 -105.8811 73° East 488 562 35,000  Level Denver Center
Sun 05:01:18 AM 38.6133 -105.7125 73° East 492 566 35,000  Level Denver Center
Sun 05:02:18 AM 38.6531 -105.5442 73° East 492 566 35,000  Level Denver Center
Sun 05:03:18 AM 38.6922 -105.3728 74° East 496 571 35,000  Level Denver Center
Sun 05:04:18 AM 38.7308 -105.2036 74° East 495 570 35,000  Level Denver Center
Sun 05:05:18 AM 38.7703 -105.0342 73° East 493 567 35,000  Level Denver Center
Sun 05:06:18 AM 38.8089 -104.8633 74° East 495 570 35,000  Level Denver Center
Sun 05:07:19 AM 38.8467 -104.6925 74° East 495 570 35,000  Level Denver Center
Sun 05:08:19 AM 38.8856 -104.5225 74° East 495 570 35,000  Level Denver Center
Sun 05:09:19 AM 38.9242 -104.3503 74° East 498 573 35,000  Level Denver Center
Sun 05:10:19 AM 38.9556 -104.2064 74° East 499 574 35,000  Level Denver Center
Sun 05:11:19 AM 38.9931 -104.0325 74° East 504 580 35,000  Level Denver Center
Sun 05:12:19 AM 39.0233 -103.8564 77° East 503 579 35,000  Level Denver Center
Sun 05:13:20 AM 39.0517 -103.6797 78° East 501 577 35,000  Level Denver Center
Sun 05:14:20 AM 39.0789 -103.5036 79° East 499 574 35,000  Level Denver Center
Sun 05:15:20 AM 39.1067 -103.3281 78° East 497 572 35,000  Level Denver Center
Sun 05:16:20 AM 39.1342 -103.1511 79° East 499 574 35,000  Level Denver Center
Sun 05:17:20 AM 39.1617 -102.9750 79° East 499 574 35,000  Level Denver Center
Sun 05:18:20 AM 39.1883 -102.7989 79° East 498 573 35,000  Level Denver Center
Sun 05:19:20 AM 39.2133 -102.6278 79° East 497 572 35,000  Level Denver Center
Sun 05:20:20 AM 39.2419 -102.4314 79° East 497 572 35,000  Level Denver Center
Sun 05:21:20 AM 39.2664 -102.2642 79° East 495 570 35,000  Level Denver Center
Sun 05:22:20 AM 39.2906 -102.0975 79° East 494 568 35,000  Level Denver Center
Sun 05:23:21 AM 39.3142 -101.9308 80° East 494 568 35,000  Level Denver Center
Sun 05:24:21 AM 39.3425 -101.7364 79° East 494 568 35,000  Level Denver Center
Sun 05:25:21 AM 39.3647 -101.5700 80° East 493 567 35,000  Level Denver Center
Sun 05:26:21 AM 39.3878 -101.4067 80° East 488 562 35,000  Level Denver Center
Sun 05:27:21 AM 39.4108 -101.2436 80° East 484 557 35,000  Level Denver Center
Sun 05:28:21 AM 39.4353 -101.0519 81° East 484 557 35,000  Level Denver Center
Sun 05:29:21 AM 39.4578 -100.8897 80° East 483 556 35,000  Level Denver Center
Sun 05:30:21 AM 39.4794 -100.7264 80° East 482 555 35,000  Level Denver Center
Sun 05:31:21 AM 39.5036 -100.5381 80° East 478 550 35,000  Level Denver Center
Sun 05:32:21 AM 39.5244 -100.3756 81° East 478 550 35,000  Level Denver Center
Sun 05:33:21 AM 39.5450 -100.2136 81° East 476 548 35,000  Level Denver Center
Sun 05:34:21 AM 39.5661 -100.0514 80° East 478 550 35,000  Level Denver Center
Sun 05:35:22 AM 39.5900 -99.8589 81° East 475 547 35,000  Level Denver Center
Sun 05:36:22 AM 39.6103 -99.6928 81° East 469 540 35,000  Level Denver Center
Sun 05:37:22 AM 39.6303 -99.5239 81° East 473 544 35,000  Level Denver Center
Sun 05:38:22 AM 39.6500 -99.3600 81° East 463 533 35,000  Level Denver Center
Sun 05:39:22 AM 39.6694 -99.1936 81° East 466 536 35,000  Level Denver Center
Sun 05:40:22 AM 39.6897 -99.0281 81° East 466 536 35,000  Level Denver Center
Sun 05:41:22 AM 39.7081 -98.8622 82° East 465 535 35,000  Level Denver Center
Sun 05:42:22 AM 39.7272 -98.6964 81° East 465 535 35,000  Level Denver Center
Sun 05:43:33 AM 39.7444 -98.5339 82° East 462 532 35,000  Level Minneapolis Center
Sun 05:44:33 AM 39.7642 -98.3711 81° East 460 529 35,000 700 Level Minneapolis Center
Sun 05:45:33 AM 39.7836 -98.1797 82° East 450 518 36,400 850 Climbing Minneapolis Center
Sun 05:46:33 AM 39.8017 -98.0256 81° East 439 505 36,700 248 Climbing Minneapolis Center
Sun 05:47:34 AM 39.8181 -97.8644 82° East 444 511 36,900 149 Climbing Minneapolis Center
Sun 05:48:34 AM 39.8358 -97.7025 82° East 451 519 37,000 50 Climbing Minneapolis Center
Sun 05:49:34 AM 39.8519 -97.5408 83° East 452 520 37,000  Level Minneapolis Center
Sun 05:50:34 AM 39.8675 -97.3819 83° East 447 514 37,000  Level Minneapolis Center
Sun 05:51:34 AM 39.8831 -97.2278 82° East 443 510 37,000 -50 Level Minneapolis Center
Sun 05:52:35 AM 39.8989 -97.0747 82° East 434 499 36,900  Descending Minneapolis Center
Sun 05:53:35 AM 39.9142 -96.9203 83° East 431 496 37,000 50 Climbing Minneapolis Center
Sun 05:54:35 AM 39.9289 -96.7653 83° East 432 497 37,000  Level Minneapolis Center
Sun 05:55:35 AM 39.9433 -96.6100 83° East 433 498 37,000 50 Level Minneapolis Center
Sun 05:56:35 AM 39.9583 -96.4564 83° East 432 497 37,100  Climbing Minneapolis Center
Sun 05:57:36 AM 39.9722 -96.3047 83° East 426 490 37,000 -50 Descending Minneapolis Center
Sun 05:58:36 AM 39.9847 -96.1564 84° East 417 480 37,000 -50 Level Minneapolis Center
Sun 05:59:36 AM 39.9989 -96.0086 83° East 413 475 36,900  Descending Minneapolis Center
Sun 06:00:36 AM 40.0136 -95.8575 83° East 419 482 37,000 50 Climbing Minneapolis Center
Sun 06:01:36 AM 40.0281 -95.7053 83° East 422 486 37,000  Level Minneapolis Center
Sun 06:02:37 AM 40.0425 -95.5544 83° East 421 484 37,000  Level Minneapolis Center
Sun 06:04:44 AM 40.0722 -95.2325 83° East 415 478 37,000  Level Kansas City Center
Sun 06:05:44 AM 40.0847 -95.0886 83° East 415 478 37,000  Level Kansas City Center
Sun 06:06:44 AM 40.0975 -94.9425 83° East 420 483 37,000  Level Kansas City Center
Sun 06:07:44 AM 40.1103 -94.7994 83° East 416 479 37,000  Level Kansas City Center
Sun 06:08:44 AM 40.1258 -94.6294 83° East 421 484 37,000  Level Kansas City Center
Sun 06:09:45 AM 40.1369 -94.4858 84° East 417 480 37,000  Level Kansas City Center
Sun 06:10:45 AM 40.1492 -94.3403 84° East 419 482 37,000  Level Kansas City Center
Sun 06:11:45 AM 40.1608 -94.1981 84° East 413 475 37,000  Level Kansas City Center
Sun 06:12:45 AM 40.1719 -94.0492 84° East 413 475 37,000  Level Kansas City Center
Sun 06:13:45 AM 40.1822 -93.9003 85° East 414 476 37,000  Level Kansas City Center
Sun 06:14:45 AM 40.1944 -93.7528 84° East 412 474 37,000  Level Kansas City Center
Sun 06:15:45 AM 40.2061 -93.6061 84° East 410 472 37,000  Level Kansas City Center
Sun 06:16:45 AM 40.2181 -93.4589 84° East 410 472 37,000  Level Kansas City Center
Sun 06:17:45 AM 40.2289 -93.3114 84° East 410 472 37,000  Level Kansas City Center
Sun 06:18:45 AM 40.2397 -93.1647 84° East 410 472 37,000  Level Kansas City Center
Sun 06:19:45 AM 40.2528 -92.9892 84° East 406 467 37,000  Level Kansas City Center
Sun 06:20:45 AM 40.2631 -92.8478 85° East 406 467 37,000  Level Kansas City Center
Sun 06:21:45 AM 40.2733 -92.7064 85° East 407 468 37,000  Level Kansas City Center
Sun 06:22:46 AM 40.2839 -92.5669 84° East 404 465 37,000  Level Kansas City Center
Sun 06:23:46 AM 40.2953 -92.4047 85° East 402 463 37,000  Level Kansas City Center
Sun 06:24:46 AM 40.3025 -92.2756 86° East 406 467 37,000  Level Kansas City Center
Sun 06:25:46 AM 40.3117 -92.1317 85° East 402 463 37,000  Level Kansas City Center
Sun 06:26:46 AM 40.3208 -91.9867 85° East 403 464 37,000  Level Kansas City Center
Sun 06:27:46 AM 40.3286 -91.8428 86° East 401 461 37,000  Level Kansas City Center
Sun 06:28:46 AM 40.3364 -91.7006 86° East 396 456 37,000  Level Kansas City Center
Sun 06:29:46 AM 40.3467 -91.5597 84° East 394 453 37,000  Level Kansas City Center
Sun 06:30:46 AM 40.3539 -91.4206 86° East 389 448 37,000  Level Kansas City Center
Sun 06:31:46 AM 40.3628 -91.2656 86° East 390 449 37,000  Level Kansas City Center
Sun 06:32:47 AM 40.3708 -91.1231 86° East 392 451 37,000  Level Kansas City Center
Sun 06:33:45 AM 40.3789 -90.9808 86° East 392 451 37,000  Level Chicago Center
Sun 06:34:45 AM 40.3869 -90.8378 86° East 394 453 37,000  Level Chicago Center
Sun 06:35:46 AM 40.3947 -90.6953 86° East 392 451 37,000  Level Chicago Center
Sun 06:36:46 AM 40.4014 -90.5553 86° East 387 445 37,000  Level Chicago Center
Sun 06:37:46 AM 40.4083 -90.4164 86° East 384 442 37,000  Level Chicago Center
Sun 06:38:47 AM 40.4144 -90.2769 87° East 385 443 37,000  Level Chicago Center
Sun 06:39:47 AM 40.4211 -90.1369 86° East 386 444 37,000  Level Chicago Center
Sun 06:40:47 AM 40.4264 -89.9969 87° East 388 447 37,000  Level Chicago Center
Sun 06:41:48 AM 40.4328 -89.8558 87° East 390 449 37,000  Level Chicago Center
Sun 06:42:48 AM 40.4386 -89.7147 87° East 392 451 37,000  Level Chicago Center
Sun 06:43:48 AM 40.4453 -89.5739 86° East 392 451 37,000  Level Chicago Center
Sun 06:44:49 AM 40.4503 -89.4325 87° East 391 450 37,000  Level Chicago Center
Sun 06:45:49 AM 40.4564 -89.2911 87° East 390 449 37,000  Level Chicago Center
Sun 06:46:49 AM 40.4617 -89.1486 87° East 393 452 37,000  Level Chicago Center
Sun 06:47:50 AM 40.4672 -89.0075 87° East 391 450 37,000  Level Chicago Center
Sun 06:48:50 AM 40.4733 -88.8372 87° East 390 449 37,000  Level Chicago Center
Sun 06:49:51 AM 40.4781 -88.7147 87° East 392 451 37,000  Level Chicago Center
Sun 06:50:51 AM 40.4828 -88.5725 87° East 395 455 37,000  Level Chicago Center
Sun 06:51:51 AM 40.4878 -88.4292 87° East 395 455 37,000  Level Chicago Center
Sun 06:52:52 AM 40.4925 -88.2583 88° East 394 453 37,000  Level Chicago Center
Sun 06:53:52 AM 40.4981 -88.1142 87° East 399 459 37,000  Level Chicago Center
Sun 06:54:52 AM 40.5014 -87.9700 88° East 399 459 37,000  Level Chicago Center
Sun 06:55:53 AM 40.5033 -87.8272 89° East 396 456 37,000  Level Chicago Center
Sun 06:56:53 AM 40.5061 -87.6822 89° East 399 459 37,000  Level Chicago Center
Sun 06:57:53 AM 40.5081 -87.5392 89° East 398 458 37,000  Level Chicago Center
Sun 06:58:54 AM 40.5100 -87.3967 89° East 394 453 37,000  Level Chicago Center
Sun 06:59:57 AM 40.5111 -87.2531 89° East 396 456 37,000  Level Chicago Center
Sun 07:00:58 AM 40.5125 -87.0972 89° East 397 457 37,000  Level Chicago Center
Sun 07:01:58 AM 40.5139 -86.9550 89° East 391 450 37,000  Level Chicago Center
Sun 07:02:58 AM 40.5153 -86.8125 89° East 391 450 37,000  Level Chicago Center
Sun 07:03:59 AM 40.5164 -86.6689 89° East 393 452 37,000  Level Chicago Center
Sun 07:04:59 AM 40.5167 -86.5247 90° East 394 453 37,000  Level Chicago Center
Sun 07:06:00 AM 40.5172 -86.3797 90° East 396 456 37,000  Level Chicago Center
Sun 07:07:00 AM 40.5172 -86.2344 90° East 398 458 37,000  Level Chicago Center
Sun 07:08:00 AM 40.5186 -86.0911 89° East 394 453 37,000  Level Chicago Center
Sun 07:09:01 AM 40.5178 -85.9467 90° East 396 456 37,000  Level Chicago Center
Sun 07:10:01 AM 40.5181 -85.8022 90° East 396 456 37,000  Level Chicago Center
Sun 07:11:02 AM 40.5178 -85.6567 90° East 399 459 37,000  Level Chicago Center
Sun 07:12:03 AM 40.5172 -85.5114 90° East 401 461 37,000  Level Chicago Center
Sun 07:13:03 AM 40.5156 -85.3642 91° East 403 464 37,000  Level Chicago Center
Sun 07:14:04 AM 40.5161 -85.2186 90° East 401 461 37,000  Level Chicago Center
Sun 07:15:04 AM 40.5136 -85.0733 91° East 401 461 37,000  Level Chicago Center
Sun 07:15:33 AM 40.5128 -84.9844 91° East 401 461 37,000 -67 Level Indianapolis Center
Sun 07:16:34 AM 40.5125 -84.8558 90° East 400 460 36,900 -49 Descending Indianapolis Center
Sun 07:17:35 AM 40.5108 -84.7067 91° East 402 463 36,900 49 Level Indianapolis Center
Sun 07:18:36 AM 40.5086 -84.5586 91° East 402 463 37,000 50 Climbing Indianapolis Center
Sun 07:19:36 AM 40.5072 -84.4100 91° East 403 464 37,000  Level Indianapolis Center
Sun 07:20:37 AM 40.5053 -84.2597 91° East 407 468 37,000  Level Indianapolis Center
Sun 07:21:38 AM 40.5028 -84.1094 91° East 406 467 37,000 -49 Level Indianapolis Center
Sun 07:22:39 AM 40.4994 -83.9600 92° East 406 467 36,900 -49 Descending Indianapolis Center
Sun 07:23:40 AM 40.4975 -83.8114 91° East 402 463 36,900  Level Indianapolis Center
Sun 07:24:41 AM 40.4953 -83.6606 91° East 407 468 36,900 49 Level Indianapolis Center
Sun 07:25:42 AM 40.4933 -83.5108 91° East 406 467 37,000 49 Climbing Indianapolis Center
Sun 07:26:43 AM 40.4897 -83.3594 92° East 409 471 37,000  Level Indianapolis Center
Sun 07:27:44 AM 40.4869 -83.1831 91° East 409 471 37,000  Level Indianapolis Center
Sun 07:28:45 AM 40.4844 -83.0572 91° East 410 472 37,000  Level Indianapolis Center
Sun 07:29:46 AM 40.4811 -82.8806 91° East 410 472 37,000  Level Indianapolis Center
Sun 07:30:47 AM 40.4769 -82.7267 92° East 413 475 37,000  Level Indianapolis Center
Sun 07:31:48 AM 40.4733 -82.5753 92° East 413 475 37,000  Level Indianapolis Center
Sun 07:32:49 AM 40.4692 -82.4217 92° East 416 479 37,000  Level Indianapolis Center
Sun 07:33:50 AM 40.4644 -82.2717 92° East 413 475 37,000  Level Indianapolis Center
Sun 07:34:51 AM 40.4606 -82.1225 92° East 409 471 37,000  Level Indianapolis Center
Sun 07:35:24 AM 40.4558 -82.0403 94° East 405 466 37,000  Level Cleveland Center
Sun 07:36:24 AM 40.4536 -81.8928 91° East 405 466 37,000  Level Cleveland Center
Sun 07:37:24 AM 40.4469 -81.7425 93° East 400 460 37,000  Level Cleveland Center
Sun 07:38:24 AM 40.4442 -81.5953 91° East 405 466 37,000  Level Cleveland Center
Sun 07:39:24 AM 40.4392 -81.4450 92° East 405 466 37,000  Level Cleveland Center
Sun 07:40:24 AM 40.4358 -81.3086 92° East 405 466 37,000  Level Cleveland Center
Sun 07:41:24 AM 40.4306 -81.1586 93° East 405 466 37,000  Level Cleveland Center
Sun 07:42:24 AM 40.4250 -81.0114 93° East 405 466 37,000  Level Cleveland Center
Sun 07:43:24 AM 40.4192 -80.8586 93° East 410 472 37,000  Level Cleveland Center
Sun 07:44:24 AM 40.4131 -80.7086 93° East 410 472 37,000  Level Cleveland Center
Sun 07:45:24 AM 40.4069 -80.5614 93° East 405 466 37,000  Level Cleveland Center
Sun 07:46:24 AM 40.4006 -80.4114 93° East 405 466 37,000  Level Cleveland Center
Sun 07:47:24 AM 40.3897 -80.2586 95° East 410 472 37,000  Level Cleveland Center
Sun 07:48:24 AM 40.3831 -80.1117 93° East 410 472 37,000  Level Cleveland Center
Sun 07:49:24 AM 40.3781 -79.9372 92° East 415 478 37,000  Level Cleveland Center
Sun 07:50:24 AM 40.3686 -79.7847 95° East 420 483 37,000 -200 Level Cleveland Center
Sun 07:51:24 AM 40.3614 -79.6322 94° East 420 483 36,600 -500 Descending Cleveland Center
Sun 07:52:24 AM 40.3536 -79.4769 94° East 420 483 36,000 -600 Descending Cleveland Center
Sun 07:53:24 AM 40.3458 -79.3192 94° East 425 489 35,400 -850 Descending Cleveland Center
Sun 07:54:24 AM 40.3358 -79.1803 95° East 425 489 34,300 -1,200 Descending Cleveland Center
Sun 07:55:24 AM 40.3275 -79.0200 94° East 425 489 33,000 -1,300 Descending Cleveland Center
Sun 07:56:24 AM 40.3169 -78.8622 95° East 431 496 31,700 -1,300 Descending Cleveland Center
Sun 07:57:24 AM 40.3142 -78.6961 91° East 441 507 30,400 -1,250 Descending Cleveland Center
Sun 07:58:24 AM 40.3158 -78.5408 89° East 435 501 29,200 -1,252 Descending Cleveland Center
Sun 08:00:07 AM 40.3153 -78.2683 90° East 432 497 27,000 -1,267 Descending New York Center
Sun 08:01:05 AM 40.3133 -78.1347 91° East 414 476 25,800 -1,017 Descending New York Center
Sun 08:02:05 AM 40.3133 -77.9958 90° East 397 457 25,000 -496 Descending New York Center
Sun 08:03:06 AM 40.3078 -77.8508 93° East 392 451 24,800 -689 Descending New York Center
Sun 08:04:07 AM 40.2950 -77.7108 97° East 392 451 23,600 -1,350 Descending New York Center
Sun 08:05:06 AM 40.2822 -77.5733 97° East 392 451 22,100 -1,462 Descending New York Center
Sun 08:06:06 AM 40.2692 -77.4389 97° East 387 445 20,700 -1,450 Descending New York Center
Sun 08:07:06 AM 40.2556 -77.3069 98° East 374 430 19,200 -857 Descending New York Center
Sun 08:08:05 AM 40.2464 -77.1728 95° East 354 407 19,000 -99 Descending New York Center
Sun 08:09:07 AM 40.2700 -77.0797 72° East 339 390 19,000 -195 Level New York Center
Sun 08:10:08 AM 40.3064 -76.9414 71° East 333 383 18,600 -1,109 Descending New York Center
Sun 08:11:06 AM 40.3211 -76.8228 81° East 333 383 16,800 -1,846 Descending New York Center
Sun 08:12:05 AM 40.2953 -76.7117 107° East 318 366 15,000 -1,800 Descending New York Center
Sun 08:13:06 AM 40.2719 -76.5981 105° East 318 366 13,200 -1,800 Descending New York Center
Sun 08:14:05 AM 40.2481 -76.4900 106° East 313 360 11,400 -1,150 Descending New York Center
Sun 08:15:06 AM 40.2275 -76.3958 106° East 306 352 10,900 -197 Descending New York Center
Sun 08:16:07 AM 40.2017 -76.2769 106° East 306 352 11,000 -298 Climbing New York Center
Sun 08:17:07 AM 40.1772 -76.1772 108° East 294 338 10,300 -1,050 Descending New York Center
Sun 08:18:07 AM 40.1561 -76.0886 107° East 284 327 8,900 -1,220 Descending New York Center
Sun 08:19:05 AM 40.1336 -75.9864 106° East 272 313 7,900 -450 Descending New York Center
Sun 08:20:07 AM 40.1164 -75.9064 106° East 267 307 8,000 49 Climbing New York Center
Sun 08:21:08 AM 40.0917 -75.8014 107° East 267 307 8,000  Level New York Center
Sun 08:22:05 AM 40.0806 -75.7192 100° East 267 307 8,000  Level New York Center
Sun 08:23:05 AM 40.0744 -75.6131 94° East 261 300 8,000 -443 Level New York Center
Sun 08:24:07 AM 40.0697 -75.5258 94° East 256 295 7,100 -492 Descending New York Center
Sun 08:25:07 AM 40.0550 -75.4272 101° East 256 295 7,000 -198 Descending New York Center
Sun 08:26:08 AM 39.9914 -75.4014 163° South 230 265 6,700 -504 Descending New York Center
Sun 08:27:06 AM 39.9261 -75.4158 190° South 229 264 6,000 -462 Descending New York Center
Sun 08:28:05 AM 39.9083 -75.4958 254° West 203 234 5,800 -385 Descending New York Center
Sun 08:29:42 AM 39.8833 -75.6167 255° West 208 239 5,000 -304 Descending Philadelphia TRACON
Sun 08:30:43 AM 39.8667 -75.6833 252° West 207 238 5,000  Level Philadelphia TRACON
Sun 08:31:43 AM 39.8500 -75.7500 252° West 207 238 5,000  Level Philadelphia TRACON
Sun 08:32:43 AM 39.8333 -75.8333 255° West 206 237 5,000  Level Philadelphia TRACON
Sun 08:33:43 AM 39.8000 -75.8667 218° Southwest 172 198 5,000  Level Philadelphia TRACON
Sun 08:34:49 AM 39.7667 -75.8000 123° Southeast 159 183 5,000 -333 Level Philadelphia TRACON
Sun 08:35:49 AM 39.7667 -75.7500 90° East 156 180 4,300 -579 Descending Philadelphia TRACON
Sun 08:36:43 AM 39.7667 -75.7000 90° East 155 178 3,900 -158 Descending Philadelphia TRACON
Sun 08:37:43 AM 39.7833 -75.6500 67° East 146 168 4,000  Climbing Philadelphia TRACON
Sun 08:38:49 AM 39.8000 -75.6000 67° East 153 176 3,900  Descending Philadelphia TRACON
Sun 08:39:49 AM 39.8000 -75.5500 90° East 149 171 4,000 -158 Climbing Philadelphia TRACON
Sun 08:40:43 AM 39.8167 -75.5000 67° East 141 162 3,600 -632 Descending Philadelphia TRACON
Sun 08:41:43 AM 39.8333 -75.4500 67° East 144 166 2,800 -850 Descending Philadelphia TRACON
Sun 08:42:43 AM 39.8333 -75.4000 90° East 158 182 1,900 -850 Descending Philadelphia TRACON
Sun 08:43:43 AM 39.8500 -75.3500 67° East 128 147 1,100 -700 Descending Philadelphia TRACON
Sun 08:44:43 AM 39.8500 -75.3000 90° East 123 142 500 -600 Descending Philadelphia TRACON

Login

Don't have an account? Register now (free) for customized features, flight alerts, and more!